Time;durP1;ratioP1;P1;durP2;ratioP2;P2;SDS_P1;SDS_P2;PMS_P1;PMS_P2;Temp;Humidity;BMP_temperature;BMP_pressure;BME280_temperature;BME280_humidity;BME280_pressure;Samples;Min_cycle;Max_cycle;Signal;HPM_P1;HPM_P2
2022/01/23 00:01:53;;;;;;;3.28;1.23;;;;;;;-4.27;68.82;100845.03;4491087;31;33266;-75
2022/01/23 00:04:40;;;;;;;3.87;1.30;;;;;;;-4.54;69.81;100855.38;4481992;31;36004;-75
2022/01/23 00:07:26;;;;;;;5.40;1.80;;;;;;;-4.46;69.84;100867.84;4489843;31;34616;-75
2022/01/23 00:10:13;;;;;;;7.00;1.60;;;;;;;-4.51;70.01;100867.56;4481403;31;34692;-75
2022/01/23 00:13:14;;;;;;;3.92;1.50;;;;;;;-3.87;67.60;100867.00;4491820;31;35570;-75
2022/01/23 00:19:06;;;;;;;4.18;1.70;;;;;;;-3.85;66.30;100878.38;4481309;31;35420;-75
2022/01/23 00:21:57;;;;;;;6.50;1.48;;;;;;;-3.91;66.52;100879.12;4475992;31;33710;-75
2022/01/23 00:30:55;;;;;;;5.35;1.98;;;;;;;-4.30;68.41;100873.03;4475422;31;34295;-75
2022/01/23 00:33:43;;;;;;;3.97;1.45;;;;;;;-4.49;69.21;100878.09;4479470;31;34080;-75
2022/01/23 00:36:30;;;;;;;5.05;1.98;;;;;;;-4.01;67.31;100875.88;4465734;31;34677;-75
2022/01/23 00:39:17;;;;;;;7.18;1.98;;;;;;;-3.97;67.66;100877.19;4490144;31;35010;-75
2022/01/23 00:42:04;;;;;;;5.35;1.80;;;;;;;-3.99;66.91;100877.34;4490984;31;34817;-75
2022/01/23 00:44:57;;;;;;;3.72;1.40;;;;;;;-3.80;65.88;100869.78;4490762;31;34436;-75
2022/01/23 00:47:44;;;;;;;6.47;1.77;;;;;;;-4.53;69.54;100870.41;4485815;31;35644;-75
2022/01/23 00:50:37;;;;;;;6.68;1.48;;;;;;;-4.86;69.94;100875.22;4480021;31;34928;-75
2022/01/23 00:53:23;;;;;;;4.18;1.80;;;;;;;-4.75;69.75;100882.81;4470973;31;35516;-75
2022/01/23 00:56:09;;;;;;;6.12;1.73;;;;;;;-4.44;68.56;100878.34;4489555;31;34129;-75
2022/01/23 00:58:58;;;;;;;5.15;1.83;;;;;;;-3.82;66.50;100875.31;4487900;31;35635;-75
2022/01/23 01:01:44;;;;;;;4.68;1.83;;;;;;;-3.12;63.60;100883.75;4488283;31;34428;-75
2022/01/23 01:04:31;;;;;;;3.37;1.52;;;;;;;-2.81;61.87;100884.25;4480855;31;34599;-75
2022/01/23 01:07:17;;;;;;;4.20;1.92;;;;;;;-2.87;61.42;100868.94;4478507;31;34128;-75
2022/01/23 01:10:10;;;;;;;7.30;1.60;;;;;;;-3.05;61.98;100869.38;4478372;31;35592;-75
2022/01/23 01:12:59;;;;;;;6.10;1.77;;;;;;;-2.90;61.86;100872.00;4478600;31;33752;-75
2022/01/23 01:31:36;;;;;;;5.40;1.70;;;;;;;-4.26;67.11;100841.38;4489814;31;34973;-75
2022/01/23 01:37:44;;;;;;;3.30;1.33;;;;;;;-5.09;71.76;100845.00;4464151;31;33516;-74
2022/01/23 01:40:31;;;;;;;7.78;1.40;;;;;;;-4.72;71.18;100840.66;4490983;31;34958;-74
2022/01/23 01:43:18;;;;;;;4.12;1.35;;;;;;;-4.57;70.71;100839.69;4477545;31;34338;-74
2022/01/23 01:46:04;;;;;;;4.50;1.65;;;;;;;-4.78;72.37;100848.41;4490005;31;34595;-75
2022/01/23 01:48:51;;;;;;;5.97;1.37;;;;;;;-5.06;72.63;100845.47;4490196;31;36015;-74
2022/01/23 01:51:40;;;;;;;6.93;1.65;;;;;;;-5.03;72.02;100854.97;4465253;31;34193;-74
2022/01/23 01:54:30;;;;;;;3.78;1.60;;;;;;;-5.17;73.17;100867.28;4477598;31;34587;-75
2022/01/23 01:57:16;;;;;;;2.72;1.20;;;;;;;-5.01;70.96;100868.97;4493769;31;34585;-75
2022/01/23 02:00:37;;;;;;;2.90;1.20;;;;;;;-5.30;73.31;100877.72;4477227;31;34897;-75
2022/01/23 02:08:23;;;;;;;4.28;1.52;;;;;;;-4.46;70.51;100870.53;4484585;31;34607;-75
2022/01/23 02:09:50;;;;;;;4.43;1.50;;;;;;;-5.23;73.61;100854.63;4478631;31;34601;-75
2022/01/23 02:13:02;;;;;;;4.30;1.20;;;;;;;-4.92;72.75;100853.72;4481405;31;34980;-75
2022/01/23 02:25:03;;;;;;;3.37;1.10;;;;;;;-4.85;72.56;100825.25;4478487;31;36030;-75
2022/01/23 02:55:26;;;;;;;3.92;1.48;;;;;;;-4.46;71.49;100841.09;4487943;31;34990;-75
2022/01/23 02:58:20;;;;;;;5.07;1.52;;;;;;;-4.46;71.12;100837.59;4471412;31;35119;-76
2022/01/23 03:01:16;;;;;;;4.57;1.42;;;;;;;-4.57;71.87;100829.00;4491030;31;35647;-74
2022/01/23 03:04:09;;;;;;;5.07;1.70;;;;;;;-4.21;71.39;100838.97;4494544;31;35595;-75
2022/01/23 03:07:12;;;;;;;3.17;1.48;;;;;;;-4.44;71.26;100839.06;4490409;31;35023;-75
2022/01/23 03:10:04;;;;;;;5.78;1.50;;;;;;;-4.37;71.64;100842.66;4482209;31;34735;-74
2022/01/23 03:16:16;;;;;;;4.65;1.83;;;;;;;-4.36;71.87;100838.13;4490585;31;34661;-76
2022/01/23 03:33:49;;;;;;;3.70;1.65;;;;;;;-4.01;71.64;100843.75;4495650;31;35782;-76
2022/01/23 03:36:38;;;;;;;7.05;1.87;;;;;;;-4.08;71.29;100849.84;4478928;31;35016;-76
2022/01/23 03:39:25;;;;;;;4.90;1.23;;;;;;;-4.18;71.61;100853.84;4492494;31;34863;-76
2022/01/23 03:42:12;;;;;;;7.85;2.40;;;;;;;-3.92;71.30;100853.38;4476559;31;33992;-76
2022/01/23 03:50:59;;;;;;;6.47;1.65;;;;;;;-3.93;70.83;100843.66;4490782;31;34699;-75
2022/01/23 03:53:47;;;;;;;4.00;1.55;;;;;;;-3.98;71.76;100840.72;4490282;31;34342;-76
2022/01/23 03:56:33;;;;;;;4.28;1.80;;;;;;;-4.12;71.75;100837.88;4493667;31;34264;-76
2022/01/23 03:59:19;;;;;;;5.30;2.97;;;;;;;-4.09;71.36;100825.97;4478151;31;34847;-75
2022/01/23 04:02:06;;;;;;;5.43;1.85;;;;;;;-4.00;70.84;100824.00;4491113;31;34799;-75
2022/01/23 04:04:53;;;;;;;4.03;1.37;;;;;;;-3.92;71.08;100832.78;4478476;31;33733;-75
2022/01/23 04:07:39;;;;;;;5.50;2.42;;;;;;;-3.60;70.06;100835.19;4490616;31;34574;-75
2022/01/23 04:10:26;;;;;;;3.35;1.50;;;;;;;-3.90;70.73;100830.75;4473158;31;35018;-76
2022/01/23 04:13:25;;;;;;;5.55;2.00;;;;;;;-3.90;71.53;100829.87;4489545;31;35540;-76
2022/01/23 04:34:56;;;;;;;3.92;1.15;;;;;;;-3.70;68.21;100841.69;4489881;31;34589;-75
2022/01/23 05:05:13;;;;;;;5.90;2.10;;;;;;;-3.86;69.85;100842.72;4476235;31;34067;-76
2022/01/23 05:08:04;;;;;;;5.53;1.65;;;;;;;-3.92;69.95;100839.97;4487021;31;35559;-75
2022/01/23 05:10:51;;;;;;;4.78;2.12;;;;;;;-3.84;69.77;100839.88;4487733;31;34928;-76
2022/01/23 05:13:40;;;;;;;7.25;2.78;;;;;;;-3.86;69.55;100844.59;4490254;31;34611;-75
2022/01/23 05:16:27;;;;;;;4.30;1.92;;;;;;;-3.83;69.43;100838.84;4473516;31;34228;-75
2022/01/23 05:19:14;;;;;;;3.80;1.55;;;;;;;-3.66;68.79;100836.78;4480360;31;35646;-75
2022/01/23 05:25:28;;;;;;;7.47;1.73;;;;;;;-3.24;67.16;100846.72;4486581;31;34724;-75
2022/01/23 05:28:13;;;;;;;2.80;1.30;;;;;;;-3.58;67.51;100859.97;4479191;31;34035;-75
2022/01/23 05:31:01;;;;;;;4.25;1.45;;;;;;;-3.54;67.90;100866.59;4489549;31;35616;-75
2022/01/23 05:33:47;;;;;;;6.10;1.77;;;;;;;-3.57;67.41;100872.34;4465028;31;34521;-76
2022/01/23 05:36:33;;;;;;;3.97;1.33;;;;;;;-3.60;67.84;100878.06;4485472;31;35618;-75
2022/01/23 05:39:23;;;;;;;5.07;1.42;;;;;;;-3.61;67.64;100879.91;4492026;31;34343;-76
2022/01/23 05:42:09;;;;;;;4.35;1.65;;;;;;;-3.55;67.82;100881.03;4477623;31;34554;-76
2022/01/23 05:44:56;;;;;;;7.90;1.98;;;;;;;-3.60;68.06;100876.22;4477190;31;34925;-76
2022/01/23 05:47:42;;;;;;;6.32;1.40;;;;;;;-3.67;68.58;100888.69;4478295;31;34162;-76
2022/01/23 05:50:29;;;;;;;3.78;1.30;;;;;;;-3.53;68.67;100900.41;4491509;31;34232;-76
2022/01/23 05:53:15;;;;;;;4.22;1.25;;;;;;;-3.53;68.04;100895.03;4477412;31;34610;-76
2022/01/23 05:56:02;;;;;;;4.22;1.60;;;;;;;-3.51;67.57;100901.87;4468745;31;34916;-76
2022/01/23 05:58:49;;;;;;;5.15;1.45;;;;;;;-3.37;67.41;100905.53;4476352;31;34583;-74
2022/01/23 06:01:36;;;;;;;3.70;1.55;;;;;;;-3.49;67.58;100901.69;4474920;31;33955;-75
2022/01/23 06:04:24;;;;;;;8.95;2.05;;;;;;;-3.50;67.85;100905.38;4488328;31;34718;-75
2022/01/23 06:07:12;;;;;;;3.70;1.42;;;;;;;-3.58;68.44;100914.38;4478801;31;35007;-75
2022/01/23 06:10:01;;;;;;;5.03;1.90;;;;;;;-3.48;68.51;100914.06;4480191;31;35444;-75
2022/01/23 06:12:48;;;;;;;3.65;1.62;;;;;;;-3.56;68.54;100919.53;4478360;31;33763;-75
2022/01/23 06:15:34;;;;;;;5.07;2.03;;;;;;;-3.62;68.98;100921.09;4476919;31;34695;-75
2022/01/23 06:18:21;;;;;;;5.80;1.50;;;;;;;-3.66;69.25;100923.34;4486972;31;35031;-76
2022/01/23 06:21:12;;;;;;;4.43;1.60;;;;;;;-3.45;69.00;100919.06;4475127;31;34636;-76
2022/01/23 06:24:14;;;;;;;3.47;1.37;;;;;;;-3.62;70.16;100929.97;4489193;31;34240;-76
2022/01/23 06:27:03;;;;;;;3.97;1.70;;;;;;;-3.57;70.44;100931.28;4474927;31;34555;-76
2022/01/23 06:29:51;;;;;;;5.30;2.40;;;;;;;-3.58;70.64;100940.34;4475262;31;35097;-76
2022/01/23 06:32:38;;;;;;;7.00;2.00;;;;;;;-3.48;70.12;100930.16;4464614;31;34516;-75
2022/01/23 06:35:24;;;;;;;5.55;1.55;;;;;;;-3.50;70.75;100938.37;4475433;31;35214;-76
2022/01/23 06:38:11;;;;;;;3.58;1.50;;;;;;;-3.46;70.94;100936.16;4487256;31;35636;-75
2022/01/23 06:40:57;;;;;;;5.50;1.70;;;;;;;-3.57;71.41;100933.94;4478217;31;35379;-75
2022/01/23 06:43:43;;;;;;;4.47;1.35;;;;;;;-3.48;71.18;100930.97;4488947;31;34406;-75
2022/01/23 06:46:34;;;;;;;4.85;1.48;;;;;;;-3.29;70.10;100932.22;4481916;31;34161;-75
2022/01/23 06:49:21;;;;;;;5.65;1.52;;;;;;;-3.36;69.96;100931.31;4476301;31;34759;-75
2022/01/23 06:52:07;;;;;;;4.78;1.60;;;;;;;-3.33;70.03;100938.16;4492178;31;35934;-76
2022/01/23 06:54:54;;;;;;;4.60;1.20;;;;;;;-3.42;70.58;100945.47;4487136;31;34616;-76
2022/01/23 06:57:41;;;;;;;3.12;1.37;;;;;;;-3.25;69.63;100938.87;4474745;31;33767;-75
2022/01/23 07:00:27;;;;;;;6.75;1.60;;;;;;;-3.04;68.29;100948.00;4471694;31;34207;-75
2022/01/23 07:03:15;;;;;;;6.03;1.75;;;;;;;-2.87;67.72;100954.78;4489615;31;35020;-75
2022/01/23 07:06:04;;;;;;;3.42;1.40;;;;;;;-2.85;67.63;100952.72;4477819;31;35238;-75
2022/01/23 07:08:50;;;;;;;6.12;1.98;;;;;;;-2.29;65.70;100952.81;4477997;31;34970;-75
2022/01/23 07:11:37;;;;;;;4.60;1.50;;;;;;;-2.71;66.43;100951.00;4494309;31;34256;-75
2022/01/23 07:14:23;;;;;;;5.35;1.35;;;;;;;-2.30;65.61;100956.53;4488839;31;35035;-75
2022/01/23 07:17:10;;;;;;;7.53;2.20;;;;;;;-2.54;66.66;100954.25;4491966;31;34388;-75
2022/01/23 07:19:58;;;;;;;4.25;1.62;;;;;;;-2.52;66.20;100960.25;4491943;31;34101;-75
2022/01/23 07:22:45;;;;;;;8.38;2.40;;;;;;;-1.92;64.61;100953.50;4487359;31;34604;-75
2022/01/23 07:25:32;;;;;;;6.32;1.87;;;;;;;-2.29;63.60;100966.25;4476265;31;34978;-75
2022/01/23 07:28:22;;;;;;;5.07;1.37;;;;;;;-2.60;65.58;100971.12;4490406;31;34856;-76
2022/01/23 07:31:10;;;;;;;5.62;2.12;;;;;;;-2.52;65.02;100968.31;4479652;31;34251;-75
2022/01/23 07:33:58;;;;;;;6.53;2.15;;;;;;;-2.63;66.39;100960.78;4487138;31;34759;-76
2022/01/23 07:36:44;;;;;;;4.60;1.33;;;;;;;-2.74;66.37;100954.88;4473089;31;36017;-76
2022/01/23 07:39:31;;;;;;;7.60;1.90;;;;;;;-2.31;65.11;100960.22;4486523;31;34274;-76
2022/01/23 07:42:18;;;;;;;5.25;1.90;;;;;;;-2.26;65.24;100960.47;4489642;31;34192;-75
2022/01/23 07:45:06;;;;;;;6.47;1.70;;;;;;;-2.81;66.61;100959.37;4489595;31;34712;-76
2022/01/23 07:47:54;;;;;;;6.12;1.87;;;;;;;-2.43;65.98;100950.22;4480156;31;36063;-76
2022/01/23 07:50:42;;;;;;;6.07;2.25;;;;;;;-2.34;65.33;100955.25;4466747;31;34967;-76
2022/01/23 07:53:29;;;;;;;7.90;2.03;;;;;;;-2.41;65.22;100965.13;4476103;31;35108;-76
2022/01/23 07:56:21;;;;;;;5.55;1.75;;;;;;;-1.99;64.60;100962.53;4493011;31;35755;-75
2022/01/23 07:59:11;;;;;;;3.97;1.92;;;;;;;-2.05;63.75;100959.63;4488385;31;34926;-75
2022/01/23 08:01:58;;;;;;;21.95;10.35;;;;;;;-2.08;64.51;100965.38;4488392;31;35878;-75
2022/01/23 08:04:48;;;;;;;8.00;3.80;;;;;;;-1.66;62.62;100968.13;4478315;31;34932;-75
2022/01/23 08:07:36;;;;;;;14.87;5.10;;;;;;;-2.31;64.80;100970.97;4478125;31;34844;-75
2022/01/23 08:10:22;;;;;;;6.80;2.47;;;;;;;-2.01;64.52;100978.84;4476101;31;35931;-75
2022/01/23 08:13:08;;;;;;;10.60;3.97;;;;;;;-1.69;63.59;100969.34;4491333;31;34706;-76
2022/01/23 08:15:55;;;;;;;8.70;4.15;;;;;;;-1.95;63.79;100975.38;4490323;31;34278;-76
2022/01/23 08:18:41;;;;;;;8.52;2.92;;;;;;;-1.88;63.45;100972.72;4490196;31;34277;-76
2022/01/23 08:21:28;;;;;;;11.48;2.80;;;;;;;-1.79;64.47;100979.63;4488234;31;35008;-76
2022/01/23 08:24:14;;;;;;;5.62;2.28;;;;;;;-1.46;62.74;100979.81;4478946;31;34488;-76
2022/01/23 08:27:00;;;;;;;6.12;2.00;;;;;;;-1.84;63.04;100988.28;4488344;31;35312;-76
2022/01/23 08:29:49;;;;;;;5.35;1.95;;;;;;;-1.77;63.99;100990.16;4489208;31;34795;-76
2022/01/23 08:32:36;;;;;;;6.25;2.17;;;;;;;-1.79;63.64;100990.38;4478584;31;35143;-75
2022/01/23 08:35:22;;;;;;;6.68;2.20;;;;;;;-1.86;63.66;100990.31;4484191;31;123633;-76
2022/01/23 08:38:09;;;;;;;10.00;2.67;;;;;;;-1.34;61.74;100992.69;4488299;31;34985;-76
2022/01/23 08:41:49;;;;;;;7.57;3.20;;;;;;;-0.98;60.55;100993.25;4487729;31;34613;-76
2022/01/23 08:44:04;;;;;;;11.52;2.80;;;;;;;-0.77;60.01;100999.53;4489645;31;35983;-75
2022/01/23 08:46:51;;;;;;;9.32;3.28;;;;;;;-1.25;61.00;101013.00;4487973;31;35550;-75
2022/01/23 08:49:44;;;;;;;10.43;3.33;;;;;;;-0.73;59.16;101000.78;4490697;31;33832;-76
2022/01/23 08:52:31;;;;;;;11.65;3.40;;;;;;;-0.88;59.34;101002.81;4478419;31;33443;-76
2022/01/23 08:55:18;;;;;;;12.05;3.30;;;;;;;-0.76;59.76;101004.72;4474174;31;35763;-76
2022/01/23 08:58:07;;;;;;;11.10;4.03;;;;;;;-0.85;60.04;100997.00;4463042;31;34628;-76
2022/01/23 09:00:53;;;;;;;9.18;3.53;;;;;;;-1.71;62.02;100997.44;4490365;31;34114;-76
2022/01/23 09:03:40;;;;;;;9.63;3.05;;;;;;;-0.81;60.08;100992.91;4486721;31;34576;-76
2022/01/23 09:06:27;;;;;;;8.63;3.22;;;;;;;-0.57;59.45;101002.25;4474143;31;35597;-76
2022/01/23 09:09:18;;;;;;;7.87;2.95;;;;;;;0.13;57.53;101005.41;4478098;31;35543;-76
2022/01/23 09:12:28;;;;;;;8.73;2.67;;;;;;;-0.53;57.85;101017.81;4476283;31;34224;-76
2022/01/23 09:15:13;;;;;;;12.93;4.00;;;;;;;-0.59;57.98;101024.03;4466384;31;34233;-76
2022/01/23 09:18:00;;;;;;;13.48;6.87;;;;;;;-0.68;60.00;101023.37;4489826;31;34234;-76
2022/01/23 09:20:49;;;;;;;10.48;4.12;;;;;;;-0.69;59.20;101018.19;4473175;31;34811;-76
2022/01/23 09:23:36;;;;;;;10.60;3.25;;;;;;;-1.07;61.42;101021.38;4475958;31;34381;-76
2022/01/23 09:26:23;;;;;;;11.85;4.00;;;;;;;-1.04;60.30;101023.66;4488266;31;33313;-77
2022/01/23 09:29:18;;;;;;;10.27;2.75;;;;;;;-1.26;61.71;101022.09;4488703;31;35027;-76
2022/01/23 09:32:07;;;;;;;31.15;11.60;;;;;;;-0.93;60.96;101024.94;4487955;31;34642;-76
2022/01/23 09:34:54;;;;;;;18.37;6.62;;;;;;;-1.66;63.76;101025.38;4485921;31;34297;-77
2022/01/23 09:37:41;;;;;;;8.45;2.53;;;;;;;-1.50;64.36;101026.94;4490311;31;34616;-77
2022/01/23 09:40:28;;;;;;;8.55;3.65;;;;;;;-1.52;63.43;101026.31;4484664;31;34603;-77
2022/01/23 09:43:19;;;;;;;9.70;2.97;;;;;;;-1.71;64.25;101029.69;4485120;31;35610;-77
2022/01/23 09:46:07;;;;;;;5.55;2.78;;;;;;;-1.26;64.57;101022.09;4475273;31;35053;-77
2022/01/23 09:48:54;;;;;;;6.25;2.80;;;;;;;-0.84;61.80;101025.59;4489417;31;34651;-77
2022/01/23 09:51:42;;;;;;;9.52;3.22;;;;;;;-1.22;63.80;101023.37;4473269;31;36092;-76
2022/01/23 09:54:30;;;;;;;9.57;3.22;;;;;;;-1.40;63.71;101027.41;4474322;31;34633;-76
2022/01/23 09:57:18;;;;;;;5.75;2.65;;;;;;;-1.45;63.62;101027.19;4486911;31;34696;-77
2022/01/23 10:00:10;;;;;;;8.60;3.05;;;;;;;-1.55;64.42;101026.69;4484161;31;34585;-77
2022/01/23 10:02:59;;;;;;;7.93;2.90;;;;;;;-1.51;64.05;101025.28;4475965;31;35030;-77
2022/01/23 10:05:49;;;;;;;8.27;2.95;;;;;;;-1.36;64.66;101028.69;4474415;31;33478;-77
2022/01/23 10:08:36;;;;;;;8.75;2.67;;;;;;;-1.33;64.96;101010.50;4485053;31;35196;-77
2022/01/23 10:11:22;;;;;;;12.07;4.07;;;;;;;-1.12;63.21;101007.69;4471656;31;35087;-77
2022/01/23 10:14:09;;;;;;;11.10;3.58;;;;;;;-0.81;61.78;101009.87;4480221;31;35953;-77
2022/01/23 10:16:56;;;;;;;12.05;3.75;;;;;;;-0.11;59.69;101010.41;4474587;31;35015;-77
2022/01/23 10:19:42;;;;;;;12.68;3.83;;;;;;;-0.85;62.49;101013.16;4478387;31;35383;-77
2022/01/23 10:22:33;;;;;;;9.20;3.35;;;;;;;-0.18;60.74;101008.75;4482300;31;35625;-76
2022/01/23 10:25:25;;;;;;;10.82;3.58;;;;;;;-0.76;61.78;101012.78;4473302;31;35590;-77
2022/01/23 10:28:18;;;;;;;7.43;3.10;;;;;;;-0.28;60.92;101017.25;4467250;31;34316;-77
2022/01/23 10:31:05;;;;;;;10.10;3.20;;;;;;;-1.02;63.37;101010.03;4476069;31;33794;-77
2022/01/23 10:33:51;;;;;;;6.70;3.35;;;;;;;-0.80;62.85;101010.69;4490766;31;34671;-78
2022/01/23 10:36:48;;;;;;;8.02;3.47;;;;;;;-0.38;62.39;101008.72;4477774;31;36054;-77
2022/01/23 10:39:45;;;;;;;9.95;3.28;;;;;;;-0.36;62.54;101006.66;4481146;31;34237;-77
2022/01/23 10:48:45;;;;;;;9.45;2.85;;;;;;;-0.88;64.56;101014.41;4480832;31;35885;-79
2022/01/23 10:51:36;;;;;;;9.83;3.40;;;;;;;-0.60;63.10;101010.75;4476624;31;34558;-79
2022/01/23 10:54:24;;;;;;;8.20;3.58;;;;;;;-0.32;62.71;101007.91;4478349;31;35690;-79
2022/01/23 10:57:10;;;;;;;9.18;3.37;;;;;;;-0.28;62.94;101003.78;4485522;31;35335;-79
2022/01/23 10:59:56;;;;;;;8.75;4.30;;;;;;;-0.83;64.22;101000.34;4474103;31;34900;-81
2022/01/23 11:02:43;;;;;;;10.95;3.37;;;;;;;-0.34;63.80;101001.88;4487365;31;34258;-82
2022/01/23 11:05:34;;;;;;;8.35;3.60;;;;;;;-0.39;63.60;100997.13;4487140;31;33919;-80
2022/01/23 11:08:30;;;;;;;6.87;3.53;;;;;;;-0.46;64.02;100996.28;4485006;31;34717;-80
2022/01/23 11:11:16;;;;;;;9.02;3.42;;;;;;;-0.41;63.47;100999.19;4484290;31;34573;-80
2022/01/23 11:17:24;;;;;;;7.68;3.40;;;;;;;-0.68;62.03;100998.31;4473209;31;34312;-82
2022/01/23 11:20:10;;;;;;;11.32;4.07;;;;;;;-0.15;61.74;101002.94;4478026;31;34569;-81
2022/01/23 11:23:34;;;;;;;9.88;3.28;;;;;;;-0.13;62.09;101012.47;4487715;31;35994;-82
2022/01/23 11:26:24;;;;;;;8.23;3.20;;;;;;;0.34;59.06;101007.03;4461697;31;34593;-80
2022/01/23 11:29:19;;;;;;;10.90;3.87;;;;;;;-0.17;61.63;101005.84;4479211;31;34155;-82
2022/01/23 11:32:06;;;;;;;9.02;3.53;;;;;;;0.48;60.23;100997.06;4478316;31;36096;-82
2022/01/23 11:35:04;;;;;;;7.72;3.40;;;;;;;-0.01;60.77;101010.81;4476544;31;34936;-80
2022/01/23 11:37:52;;;;;;;8.63;3.47;;;;;;;-0.07;61.83;100998.16;4471048;31;35521;-81
2022/01/23 11:55:57;;;;;;;12.75;4.20;;;;;;;-0.41;64.93;101001.06;4485500;31;34229;-81
2022/01/23 11:58:44;;;;;;;8.45;4.00;;;;;;;-0.30;65.45;101000.44;4475050;31;34779;-78
2022/01/23 12:01:30;;;;;;;10.10;3.62;;;;;;;-0.69;65.63;100996.66;4484910;31;34314;-81
2022/01/23 12:04:22;;;;;;;8.05;3.60;;;;;;;-0.57;66.47;100984.28;4476274;31;34142;-81
2022/01/23 12:07:15;;;;;;;11.40;4.55;;;;;;;-0.57;66.23;100989.66;4479159;31;35181;-80
2022/01/23 12:10:21;;;;;;;9.48;4.65;;;;;;;-0.65;66.23;100987.16;4474393;31;34576;-80
2022/01/23 12:16:21;;;;;;;12.43;4.87;;;;;;;-0.51;65.75;100974.53;4491756;31;34530;-81
2022/01/23 12:16:58;;;;;;;12.35;4.50;;;;;;;-0.64;66.67;100980.72;4485277;31;35261;-80
2022/01/23 12:19:54;;;;;;;12.35;4.85;;;;;;;-0.73;67.00;100984.66;4486183;31;34641;-80
2022/01/23 12:22:42;;;;;;;8.18;3.80;;;;;;;-0.35;66.37;100984.91;4473195;31;34123;-81
2022/01/23 12:25:43;;;;;;;11.85;3.50;;;;;;;-0.57;66.42;100983.41;4475653;31;35216;-82
2022/01/23 12:28:32;;;;;;;9.25;3.97;;;;;;;-0.19;65.01;100978.28;4481841;31;34159;-83
2022/01/23 12:31:23;;;;;;;10.68;4.20;;;;;;;-0.36;66.01;100971.66;4478902;31;34628;-82
2022/01/23 12:34:12;;;;;;;9.75;3.87;;;;;;;-0.36;65.36;100958.19;4488428;31;35932;-82
2022/01/23 12:36:58;;;;;;;10.40;4.00;;;;;;;-0.18;63.32;100968.34;4484633;31;34659;-81
2022/01/23 12:39:46;;;;;;;9.73;4.07;;;;;;;-0.31;63.65;100967.31;4469424;31;33811;-82
2022/01/23 12:43:15;;;;;;;10.10;3.87;;;;;;;0.08;62.79;100965.59;4465155;31;34577;-82
2022/01/23 12:46:05;;;;;;;9.52;3.53;;;;;;;0.61;59.64;100970.88;4415393;32;34925;-82
2022/01/23 12:48:52;;;;;;;8.00;3.30;;;;;;;0.17;60.29;100960.81;4412722;32;34666;-82
2022/01/23 12:51:41;;;;;;;8.02;3.22;;;;;;;-0.07;59.30;100963.13;4476073;31;34133;-82
2022/01/23 12:54:29;;;;;;;10.00;4.10;;;;;;;0.01;59.66;100958.59;4482268;31;35187;-81
2022/01/23 12:57:18;;;;;;;6.70;2.85;;;;;;;-0.15;60.01;100960.66;4477095;31;34926;-81
2022/01/23 13:00:10;;;;;;;8.27;3.03;;;;;;;-0.22;58.21;100959.84;4487793;31;36676;-80
2022/01/23 13:02:57;;;;;;;9.23;2.62;;;;;;;-0.18;58.33;100955.69;4467555;31;34182;-79
2022/01/23 13:05:47;;;;;;;15.32;5.25;;;;;;;0.03;57.51;100959.19;4479613;31;35193;-80
2022/01/23 13:08:37;;;;;;;6.00;2.62;;;;;;;0.10;57.39;100973.50;4485583;31;34043;-81
2022/01/23 13:14:40;;;;;;;6.82;2.87;;;;;;;0.03;56.00;100967.28;4489322;31;34479;-79
2022/01/23 13:18:02;;;;;;;13.57;3.05;;;;;;;-0.17;56.22;100965.44;4479223;31;34646;-80
2022/01/23 13:28:10;;;;;;;17.60;3.30;;;;;;;0.24;54.40;100963.53;4476647;31;34359;-80
2022/01/23 13:30:23;;;;;;;7.55;2.70;;;;;;;0.78;54.16;100963.16;4482540;31;34677;-78
2022/01/23 13:33:14;;;;;;;8.48;3.10;;;;;;;0.84;53.10;100973.06;4480660;31;35915;-79
2022/01/23 13:36:07;;;;;;;6.68;2.42;;;;;;;0.86;52.87;100968.31;4490530;31;35470;-79
2022/01/23 13:38:55;;;;;;;9.88;3.37;;;;;;;0.78;52.93;100960.44;4483261;31;33834;-77
2022/01/23 13:41:59;;;;;;;7.20;2.78;;;;;;;0.87;52.77;100955.63;4492675;31;34733;-80
2022/01/23 13:57:38;;;;;;;9.25;2.87;;;;;;;1.26;52.17;100972.69;4477928;31;35928;-78
2022/01/23 14:00:27;;;;;;;5.68;2.60;;;;;;;1.05;52.17;100971.97;4484663;31;35199;-80
2022/01/23 14:03:13;;;;;;;11.20;3.78;;;;;;;1.31;52.14;100976.37;4484622;31;34137;-76
2022/01/23 14:05:59;;;;;;;5.72;2.72;;;;;;;0.84;54.20;100973.06;4478401;31;34398;-79
2022/01/23 14:09:09;;;;;;;8.05;3.03;;;;;;;1.03;53.52;100967.81;4472869;31;34969;-80
2022/01/23 14:11:55;;;;;;;10.77;3.42;;;;;;;1.44;52.34;100969.22;4462823;31;35481;-79
2022/01/23 14:14:55;;;;;;;9.20;3.28;;;;;;;1.31;52.75;100962.87;4492144;31;34357;-81
2022/01/23 14:18:02;;;;;;;8.73;3.10;;;;;;;1.57;52.62;100967.28;4480570;31;34746;-81
2022/01/23 14:21:04;;;;;;;6.72;2.60;;;;;;;1.09;53.41;100975.87;4487996;31;35953;-81
2022/01/23 14:23:54;;;;;;;9.52;2.72;;;;;;;1.21;53.51;100969.78;4477011;31;33415;-80
2022/01/23 14:26:54;;;;;;;5.97;2.33;;;;;;;1.09;53.59;100962.37;4477492;31;34403;-80
2022/01/23 14:29:47;;;;;;;8.90;3.42;;;;;;;0.99;53.82;100966.59;4468386;31;33420;-80
2022/01/23 14:32:45;;;;;;;5.68;2.42;;;;;;;1.08;53.67;100962.59;4468907;31;35444;-77
2022/01/23 14:35:32;;;;;;;6.80;3.05;;;;;;;0.74;54.11;100964.62;4486210;31;34613;-79
2022/01/23 14:38:25;;;;;;;6.75;2.90;;;;;;;0.59;54.83;100972.13;4476444;31;34102;-80
2022/01/23 14:41:11;;;;;;;8.85;3.33;;;;;;;0.46;55.07;100978.41;4488294;31;34572;-77
2022/01/23 14:43:58;;;;;;;8.07;3.00;;;;;;;0.47;55.89;100992.72;4491567;31;34886;-81
2022/01/23 14:46:49;;;;;;;8.25;2.67;;;;;;;0.31;56.01;100992.13;4479517;31;35448;-81
2022/01/23 14:49:38;;;;;;;6.68;2.50;;;;;;;0.67;55.38;100990.78;4477711;31;34170;-76
2022/01/23 14:52:27;;;;;;;7.25;2.87;;;;;;;0.73;55.96;100981.84;4488551;31;35707;-80
2022/01/23 14:55:14;;;;;;;7.00;3.40;;;;;;;0.69;55.73;101001.38;4490690;31;34873;-80
2022/01/23 14:58:02;;;;;;;10.75;3.05;;;;;;;0.66;55.58;101008.03;4489045;31;35710;-80
2022/01/23 15:00:50;;;;;;;10.60;2.80;;;;;;;0.72;55.25;101012.56;4476972;31;34170;-80
2022/01/23 15:03:40;;;;;;;7.12;2.70;;;;;;;0.47;55.77;101019.69;4479711;31;34148;-80
2022/01/23 15:06:48;;;;;;;8.70;3.45;;;;;;;1.36;53.88;101021.62;4487929;31;35202;-81
2022/01/23 15:09:34;;;;;;;9.68;3.80;;;;;;;1.87;52.83;101022.53;4485486;31;35266;-80
2022/01/23 15:12:21;;;;;;;9.13;3.62;;;;;;;0.77;55.83;101028.97;4479112;31;33301;-80
2022/01/23 15:15:07;;;;;;;10.98;4.20;;;;;;;-0.01;59.70;101034.22;4472884;31;34295;-80
2022/01/23 15:17:54;;;;;;;9.88;3.75;;;;;;;0.10;59.96;101030.09;4483276;31;35749;-80
2022/01/23 15:20:41;;;;;;;8.80;3.72;;;;;;;0.13;60.40;101037.75;4465933;31;34619;-78
2022/01/23 15:23:28;;;;;;;8.95;3.80;;;;;;;0.09;60.45;101037.34;4483601;31;34143;-77
2022/01/23 15:26:14;;;;;;;7.40;3.80;;;;;;;0.83;57.87;101048.88;4487030;31;34598;-78
2022/01/23 15:29:03;;;;;;;8.50;3.62;;;;;;;1.27;56.11;101039.94;4483516;31;35959;-78
2022/01/23 15:31:49;;;;;;;10.90;5.28;;;;;;;1.37;55.41;101049.44;4476461;31;34554;-78
2022/01/23 15:34:38;;;;;;;9.63;3.78;;;;;;;1.21;55.17;101046.22;4490375;31;34833;-78
2022/01/23 15:37:24;;;;;;;8.20;3.53;;;;;;;0.79;57.27;101042.22;4470348;31;34304;-78
2022/01/23 15:40:12;;;;;;;8.35;3.70;;;;;;;0.55;57.90;101047.25;4461678;31;34994;-77
2022/01/23 15:42:58;;;;;;;11.93;3.60;;;;;;;0.90;56.82;101039.69;4479597;31;34539;-78
2022/01/23 15:45:45;;;;;;;9.55;3.83;;;;;;;0.32;58.19;101041.50;4481029;31;33881;-77
2022/01/23 15:48:33;;;;;;;11.50;5.15;;;;;;;0.98;56.45;101040.50;4488918;31;35312;-77
2022/01/23 15:51:19;;;;;;;19.87;7.93;;;;;;;0.85;56.67;101057.56;4477018;31;33605;-77
2022/01/23 15:54:06;;;;;;;17.67;8.02;;;;;;;0.69;57.00;101050.75;4495578;31;34555;-77
2022/01/23 15:56:54;;;;;;;17.33;7.18;;;;;;;0.67;57.29;101059.06;4481251;31;33867;-77
2022/01/23 15:59:39;;;;;;;12.63;6.10;;;;;;;-0.29;59.61;101045.19;4484697;31;35519;-78
2022/01/23 16:02:26;;;;;;;17.08;6.55;;;;;;;-0.15;59.92;101063.03;4482258;31;34915;-78
2022/01/23 16:05:15;;;;;;;15.65;6.45;;;;;;;0.19;58.56;101072.78;4477442;31;33509;-77
2022/01/23 16:08:02;;;;;;;13.93;6.12;;;;;;;-0.92;62.87;101070.47;4490354;31;33379;-77
2022/01/23 16:10:48;;;;;;;11.93;5.97;;;;;;;-0.72;61.86;101073.25;4483581;31;35575;-76
2022/01/23 16:13:35;;;;;;;14.82;5.85;;;;;;;-0.43;60.51;101081.22;4484267;31;36006;-77
2022/01/23 16:16:21;;;;;;;12.45;5.18;;;;;;;-0.93;62.12;101073.38;4480871;31;34600;-77
2022/01/23 16:19:07;;;;;;;15.82;6.25;;;;;;;-0.56;61.20;101082.00;4476151;31;33847;-77